createdAt,value
2022-10-10T00:02:35.362Z,6.72
2022-10-10T00:07:39.343Z,7.16
2022-10-10T00:12:41.921Z,6.28
2022-10-10T00:17:44.707Z,7.33
2022-10-10T00:22:49.497Z,6.10
2022-10-10T00:27:52.268Z,5.73
2022-10-10T00:32:54.815Z,5.35
2022-10-10T00:37:58.940Z,5.62
2022-10-10T00:43:01.571Z,5.28
2022-10-10T00:48:07.694Z,4.85
2022-10-10T00:53:14.659Z,5.47
2022-10-10T00:58:18.347Z,5.60
2022-10-10T01:03:21.199Z,5.47
2022-10-10T01:08:25.266Z,6.67
2022-10-10T01:13:33.594Z,6.48
2022-10-10T01:18:44.839Z,6.78
2022-10-10T01:24:32.146Z,6.84
2022-10-10T01:29:39.942Z,6.31
2022-10-10T01:34:54.368Z,6.74
2022-10-10T01:40:01.500Z,6.34
2022-10-10T01:45:06.920Z,7.00
2022-10-10T01:50:13.125Z,6.09
2022-10-10T01:55:33.141Z,7.11
2022-10-10T02:00:46.982Z,5.80
2022-10-10T02:05:55.199Z,5.79
2022-10-10T02:11:01.654Z,6.94
2022-10-10T02:16:09.531Z,6.70
2022-10-10T02:21:14.175Z,7.05
2022-10-10T02:26:18.149Z,7.44
2022-10-10T02:31:28.686Z,7.66
2022-10-10T02:36:32.856Z,7.74
2022-10-10T02:41:37.598Z,7.88
2022-10-10T02:46:41.897Z,8.03
2022-10-10T02:51:44.459Z,7.96
2022-10-10T02:56:47.052Z,7.78
2022-10-10T03:01:51.277Z,7.70
2022-10-10T03:06:54.394Z,7.53
2022-10-10T03:11:56.966Z,7.67
2022-10-10T03:17:00.892Z,7.98
2022-10-10T03:22:03.525Z,7.77
2022-10-10T03:27:06.143Z,7.51
2022-10-10T03:32:11.169Z,7.22
2022-10-10T03:37:13.900Z,7.59
2022-10-10T03:42:16.464Z,7.67
2022-10-10T03:47:20.437Z,7.70
2022-10-10T03:52:23.025Z,7.91
2022-10-10T03:57:25.754Z,7.85
2022-10-10T04:02:29.778Z,7.82
2022-10-10T04:07:32.657Z,7.91
2022-10-10T04:12:35.539Z,7.86
2022-10-10T04:17:39.463Z,7.58
2022-10-10T04:22:42.757Z,7.71
2022-10-10T04:27:45.633Z,7.64
2022-10-10T04:32:49.772Z,7.48
2022-10-10T04:37:53.467Z,7.58
2022-10-10T04:42:56.309Z,7.54
2022-10-10T04:48:00.240Z,7.70
2022-10-10T04:53:02.863Z,7.62
2022-10-10T04:58:05.437Z,6.52
2022-10-10T05:03:11.515Z,6.78
2022-10-10T05:08:14.097Z,7.45
2022-10-10T05:13:17.722Z,7.39
2022-10-10T05:18:22.550Z,5.66
2022-10-10T05:23:25.158Z,6.49
2022-10-10T05:28:27.813Z,7.29
2022-10-10T05:33:32.110Z,6.92
2022-10-10T05:38:35.204Z,6.48
2022-10-10T05:43:38.157Z,6.72
2022-10-10T05:48:42.191Z,7.23
2022-10-10T05:53:44.727Z,7.59
2022-10-10T05:58:47.399Z,7.86
2022-10-10T06:03:55.823Z,7.78
2022-10-10T06:08:59.027Z,7.72
2022-10-10T06:14:01.667Z,7.75
2022-10-10T06:19:05.743Z,7.89
2022-10-10T06:24:08.770Z,8.00
2022-10-10T06:29:11.435Z,7.58
2022-10-10T06:34:15.383Z,7.62
2022-10-10T06:39:18.286Z,7.69
2022-10-10T06:44:21.153Z,7.87
2022-10-10T06:49:25.411Z,7.85
2022-10-10T06:54:29.066Z,7.85
2022-10-10T06:59:31.685Z,6.95
2022-10-10T07:04:35.591Z,7.25
2022-10-10T07:09:38.181Z,7.91
2022-10-10T07:14:40.899Z,8.11
2022-10-10T07:19:44.835Z,8.65
2022-10-10T07:24:47.529Z,9.19
2022-10-10T07:29:50.089Z,9.87
2022-10-10T07:34:53.985Z,10.45
2022-10-10T07:39:56.878Z,10.83
2022-10-10T07:44:59.466Z,11.06
2022-10-10T07:50:03.439Z,11.35
2022-10-10T07:55:06.994Z,11.45
2022-10-10T08:00:11.678Z,11.99
2022-10-10T08:05:15.789Z,12.56
2022-10-10T08:10:18.557Z,12.61
2022-10-10T08:15:21.294Z,12.70
2022-10-10T08:20:25.275Z,12.61
2022-10-10T08:25:27.850Z,13.35
2022-10-10T08:30:30.546Z,13.26
2022-10-10T08:35:38.559Z,13.39
2022-10-10T08:40:47.574Z,13.56
2022-10-10T08:45:52.216Z,13.63
2022-10-10T08:51:00.671Z,13.84
2022-10-10T08:56:07.202Z,13.76
2022-10-10T09:01:14.263Z,13.88
2022-10-10T09:06:44.751Z,14.29
2022-10-10T09:11:59.220Z,14.49
2022-10-10T09:17:07.602Z,14.87
2022-10-10T09:22:15.616Z,14.88
2022-10-10T09:27:23.511Z,14.86
2022-10-10T09:32:32.280Z,14.91
2022-10-10T09:37:47.400Z,15.33
2022-10-10T09:42:50.433Z,15.56
2022-10-10T09:47:55.578Z,15.96
2022-10-10T09:52:59.880Z,16.19
2022-10-10T09:58:13.158Z,17.25
2022-10-10T10:03:17.807Z,17.13
2022-10-10T10:08:26.379Z,17.90
2022-10-10T10:13:32.069Z,19.83
2022-10-10T10:18:41.078Z,22.73
2022-10-10T10:23:52.227Z,23.37
2022-10-10T10:28:57.614Z,26.02
2022-10-10T10:34:11.819Z,26.57
2022-10-10T10:39:30.012Z,29.30
2022-10-10T10:44:41.097Z,27.44
2022-10-10T10:49:54.231Z,30.92
2022-10-10T10:55:05.096Z,29.70
2022-10-10T11:00:20.301Z,26.31
2022-10-10T11:05:41.816Z,31.64
2022-10-10T11:10:57.457Z,31.30
2022-10-10T11:16:09.983Z,30.31
2022-10-10T11:21:24.425Z,32.08
2022-10-10T11:26:33.116Z,28.77
2022-10-10T11:31:40.972Z,28.26
2022-10-10T11:36:46.849Z,30.57
2022-10-10T11:41:55.089Z,29.65
2022-10-10T11:47:03.283Z,31.16
2022-10-10T11:52:35.423Z,31.61
2022-10-10T11:57:44.207Z,32.96
2022-10-10T12:02:48.449Z,33.82
2022-10-10T12:08:05.927Z,29.80
2022-10-10T12:13:26.417Z,30.10
2022-10-10T12:18:33.188Z,30.01
2022-10-10T12:23:36.189Z,31.63
2022-10-10T12:29:00.435Z,31.07
2022-10-10T12:34:19.993Z,30.07
2022-10-10T12:39:38.658Z,31.32
2022-10-10T12:44:47.455Z,31.62
2022-10-10T12:49:53.395Z,33.04
2022-10-10T12:55:06.702Z,32.20
2022-10-10T13:00:19.676Z,32.44
2022-10-10T13:05:28.611Z,29.92
2022-10-10T13:10:32.835Z,33.29
2022-10-10T13:15:38.080Z,31.89
2022-10-10T13:20:41.552Z,30.11
2022-10-10T13:25:46.871Z,33.13
2022-10-10T13:30:51.828Z,31.88
2022-10-10T13:35:54.511Z,32.66
2022-10-10T13:40:57.061Z,30.95
2022-10-10T13:46:03.496Z,30.52
2022-10-10T13:51:11.897Z,30.04
2022-10-10T13:56:17.630Z,32.25
2022-10-10T14:01:30.190Z,32.22
2022-10-10T14:06:33.506Z,29.94
2022-10-10T14:11:36.562Z,29.87
2022-10-10T14:16:40.689Z,28.90
2022-10-10T14:21:43.292Z,28.77
2022-10-10T14:26:45.884Z,29.86
2022-10-10T14:31:50.092Z,27.49
2022-10-10T14:36:52.761Z,29.44
2022-10-10T14:41:55.513Z,32.65
2022-10-10T14:46:59.753Z,28.11
2022-10-10T14:52:02.566Z,25.78
2022-10-10T14:57:06.494Z,23.81
2022-10-10T15:02:12.122Z,23.30
2022-10-10T15:07:15.668Z,23.06
2022-10-10T15:12:18.348Z,22.08
2022-10-10T15:17:22.722Z,21.06
2022-10-10T15:22:25.328Z,21.34
2022-10-10T15:27:29.018Z,21.72
2022-10-10T15:32:33.082Z,22.54
2022-10-10T15:37:35.917Z,22.11
2022-10-10T15:42:38.565Z,21.81
2022-10-10T15:47:46.629Z,21.04
2022-10-10T15:52:50.065Z,21.33
2022-10-10T15:57:52.698Z,20.99
2022-10-10T16:02:56.653Z,20.88
2022-10-10T16:07:59.125Z,19.65
2022-10-10T16:13:01.826Z,19.23
2022-10-10T16:18:12.799Z,18.90
2022-10-10T16:23:15.420Z,18.64
2022-10-10T16:28:18.076Z,17.82
2022-10-10T16:33:22.058Z,18.29
2022-10-10T16:38:27.717Z,17.55
2022-10-10T16:43:30.327Z,17.48
2022-10-10T16:48:49.640Z,16.83
2022-10-10T16:53:55.539Z,16.93
2022-10-10T16:58:59.553Z,16.32
2022-10-10T17:04:04.607Z,16.34
2022-10-10T17:09:18.329Z,15.60
2022-10-10T17:14:21.048Z,15.72
2022-10-10T17:19:28.537Z,16.86
2022-10-10T17:24:34.436Z,15.86
2022-10-10T17:29:37.305Z,15.34
2022-10-10T17:34:43.318Z,14.49
2022-10-10T17:39:51.827Z,13.74
2022-10-10T17:44:59.469Z,13.82
2022-10-10T17:50:06.006Z,14.42
2022-10-10T17:55:13.081Z,14.52
2022-10-10T18:00:16.334Z,14.81
2022-10-10T18:05:20.858Z,15.05
2022-10-10T18:10:26.062Z,15.09
2022-10-10T18:15:28.959Z,13.77
2022-10-10T18:20:33.309Z,13.24
2022-10-10T18:25:35.954Z,13.41
2022-10-10T18:30:41.084Z,14.30
2022-10-10T18:35:45.272Z,14.36
2022-10-10T18:40:49.307Z,13.87
2022-10-10T18:45:53.578Z,13.92
2022-10-10T18:51:02.740Z,13.38
2022-10-10T18:56:06.489Z,13.56
2022-10-10T19:01:11.871Z,14.05
2022-10-10T19:06:16.917Z,13.78
2022-10-10T19:11:21.465Z,14.16
2022-10-10T19:16:24.323Z,14.36
2022-10-10T19:21:32.355Z,14.36
2022-10-10T19:26:35.717Z,14.75
2022-10-10T19:31:38.730Z,15.11
2022-10-10T19:36:42.855Z,15.41
2022-10-10T19:41:45.649Z,15.19
2022-10-10T19:46:48.376Z,15.10
2022-10-10T19:51:54.025Z,15.28
2022-10-10T19:56:56.874Z,15.48
2022-10-10T20:01:59.623Z,15.68
2022-10-10T20:07:04.137Z,15.76
2022-10-10T20:12:06.782Z,16.29
2022-10-10T20:17:09.636Z,15.88
2022-10-10T20:22:13.609Z,15.47
2022-10-10T20:27:16.290Z,15.16
2022-10-10T20:32:18.913Z,15.50
2022-10-10T20:37:23.166Z,15.36
2022-10-10T20:42:26.098Z,15.29
2022-10-10T20:47:30.861Z,15.26
2022-10-10T20:52:35.178Z,14.56
2022-10-10T20:57:41.107Z,14.18
2022-10-10T21:02:44.151Z,14.57
2022-10-10T21:07:48.975Z,14.86
2022-10-10T21:12:51.883Z,14.95
2022-10-10T21:17:55.475Z,14.72
2022-10-10T21:22:59.484Z,14.59
2022-10-10T21:28:05.170Z,15.23
2022-10-10T21:33:10.253Z,15.77
2022-10-10T21:38:14.647Z,14.76
2022-10-10T21:43:17.456Z,14.22
2022-10-10T21:48:20.161Z,15.04
2022-10-10T21:53:24.291Z,15.31
2022-10-10T21:58:27.172Z,14.98
2022-10-10T22:03:29.970Z,14.31
2022-10-10T22:08:34.511Z,14.36
2022-10-10T22:13:38.975Z,14.41
2022-10-10T22:18:42.801Z,14.33
2022-10-10T22:23:46.759Z,14.37
2022-10-10T22:28:49.432Z,14.24
2022-10-10T22:33:52.093Z,14.40
2022-10-10T22:38:56.042Z,14.66
2022-10-10T22:43:58.994Z,14.82
2022-10-10T22:49:01.557Z,15.18
2022-10-10T22:54:06.729Z,15.54
2022-10-10T22:59:11.759Z,15.40
2022-10-10T23:04:14.800Z,15.66
2022-10-10T23:09:21.682Z,15.46
2022-10-10T23:14:27.126Z,15.32
2022-10-10T23:19:33.095Z,15.39
2022-10-10T23:24:39.372Z,15.42
2022-10-10T23:29:41.961Z,15.40
2022-10-10T23:34:51.065Z,15.36
2022-10-10T23:39:55.128Z,14.86
2022-10-10T23:44:57.849Z,14.84
2022-10-10T23:50:00.814Z,13.73
2022-10-10T23:55:05.546Z,13.54
